Branchland, West Virginia
Current Conditions -  °F | °C
As of 5:51 AM on Sunday 23 Nov 2014 (Local Time) from KHTS Reporting Station
Overcast Overcast  
Wind Chill: 44°   Ceiling: 10000
Heat Index: 46°   Visibility: 10mi
Dew Point: 29°   Wind: 5mph
Humidity: 51%   Direction: 100°E
Pressure: 30.07"   Gusts: NA
Location:  38.22°N, 82.2°W
Report Text: KHTS 231051Z 10004KT 10SM OVC100 08/M02 A3007 RMK AO2 SLP182 T00781017
Loading
Personal Weather Stations






























Interactive Weather Map New forecast layout! Learn more

10-Day Weather Forecast

Advertisements
Track Severe Weather on mobile